sensor_id;sensor_type;location;lat;lon;timestamp;temperature;humidity
15355;DHT22;7777;52.254;9.618;2022-09-09T00:01:54;16.00;99.90
15355;DHT22;7777;52.254;9.618;2022-09-09T00:04:28;16.00;99.90
15355;DHT22;7777;52.254;9.618;2022-09-09T00:07:16;16.00;99.90
15355;DHT22;7777;52.254;9.618;2022-09-09T00:09:49;16.00;99.90
15355;DHT22;7777;52.254;9.618;2022-09-09T00:15:15;16.00;99.90
15355;DHT22;7777;52.254;9.618;2022-09-09T00:18:00;16.00;99.90
15355;DHT22;7777;52.254;9.618;2022-09-09T00:21:08;16.00;99.90
15355;DHT22;7777;52.254;9.618;2022-09-09T00:23:47;16.00;99.90
15355;DHT22;7777;52.254;9.618;2022-09-09T00:26:42;16.00;99.90
15355;DHT22;7777;52.254;9.618;2022-09-09T00:32:14;16.00;99.90
15355;DHT22;7777;52.254;9.618;2022-09-09T00:35:23;16.00;99.90
15355;DHT22;7777;52.254;9.618;2022-09-09T00:37:48;15.90;99.90
15355;DHT22;7777;52.254;9.618;2022-09-09T00:40:33;15.90;99.90
15355;DHT22;7777;52.254;9.618;2022-09-09T00:57:40;15.70;99.90
15355;DHT22;7777;52.254;9.618;2022-09-09T01:00:22;15.70;99.90
15355;DHT22;7777;52.254;9.618;2022-09-09T01:28:37;15.40;99.90
15355;DHT22;7777;52.254;9.618;2022-09-09T01:31:06;15.40;99.90
15355;DHT22;7777;52.254;9.618;2022-09-09T01:33:33;15.40;99.90
15355;DHT22;7777;52.254;9.618;2022-09-09T01:38:35;15.40;99.90
15355;DHT22;7777;52.254;9.618;2022-09-09T01:41:02;15.40;99.90
15355;DHT22;7777;52.254;9.618;2022-09-09T01:43:29;15.30;99.90
15355;DHT22;7777;52.254;9.618;2022-09-09T01:45:58;15.30;99.90
15355;DHT22;7777;52.254;9.618;2022-09-09T01:48:25;15.30;99.90
15355;DHT22;7777;52.254;9.618;2022-09-09T01:50:51;15.30;99.90
15355;DHT22;7777;52.254;9.618;2022-09-09T01:53:19;15.20;99.90
15355;DHT22;7777;52.254;9.618;2022-09-09T01:59:03;15.20;99.90
15355;DHT22;7777;52.254;9.618;2022-09-09T02:04:36;15.10;99.90
15355;DHT22;7777;52.254;9.618;2022-09-09T02:07:03;15.10;99.90
15355;DHT22;7777;52.254;9.618;2022-09-09T02:09:35;15.10;99.90
15355;DHT22;7777;52.254;9.618;2022-09-09T02:12:21;15.10;99.90
15355;DHT22;7777;52.254;9.618;2022-09-09T02:14:56;15.10;99.90
15355;DHT22;7777;52.254;9.618;2022-09-09T02:17:32;15.10;99.90
15355;DHT22;7777;52.254;9.618;2022-09-09T02:20:08;15.10;99.90
15355;DHT22;7777;52.254;9.618;2022-09-09T02:22:37;15.10;99.90
15355;DHT22;7777;52.254;9.618;2022-09-09T02:25:08;15.10;99.90
15355;DHT22;7777;52.254;9.618;2022-09-09T02:27:36;15.10;99.90
15355;DHT22;7777;52.254;9.618;2022-09-09T02:30:03;15.00;99.90
15355;DHT22;7777;52.254;9.618;2022-09-09T02:32:31;15.10;99.90
15355;DHT22;7777;52.254;9.618;2022-09-09T02:35:02;15.10;99.90
15355;DHT22;7777;52.254;9.618;2022-09-09T02:37:39;15.10;99.90
15355;DHT22;7777;52.254;9.618;2022-09-09T02:40:10;15.10;99.90
15355;DHT22;7777;52.254;9.618;2022-09-09T02:42:41;15.10;99.90
15355;DHT22;7777;52.254;9.618;2022-09-09T02:45:10;15.10;99.90
15355;DHT22;7777;52.254;9.618;2022-09-09T02:47:53;15.10;99.90
15355;DHT22;7777;52.254;9.618;2022-09-09T02:50:36;15.10;99.90
15355;DHT22;7777;52.254;9.618;2022-09-09T02:53:23;15.20;99.90
15355;DHT22;7777;52.254;9.618;2022-09-09T02:56:27;15.20;99.90
15355;DHT22;7777;52.254;9.618;2022-09-09T02:58:46;15.20;99.90
15355;DHT22;7777;52.254;9.618;2022-09-09T03:01:13;15.20;99.90
15355;DHT22;7777;52.254;9.618;2022-09-09T03:03:39;15.20;99.90
15355;DHT22;7777;52.254;9.618;2022-09-09T03:06:06;15.30;99.90
15355;DHT22;7777;52.254;9.618;2022-09-09T03:08:32;15.30;99.90
15355;DHT22;7777;52.254;9.618;2022-09-09T03:10:59;15.30;99.90
15355;DHT22;7777;52.254;9.618;2022-09-09T03:13:28;15.30;99.90
15355;DHT22;7777;52.254;9.618;2022-09-09T03:15:54;15.30;99.90
15355;DHT22;7777;52.254;9.618;2022-09-09T03:18:20;15.30;99.90
15355;DHT22;7777;52.254;9.618;2022-09-09T03:20:46;15.30;99.90
15355;DHT22;7777;52.254;9.618;2022-09-09T03:23:16;15.30;99.90
15355;DHT22;7777;52.254;9.618;2022-09-09T03:25:52;15.30;99.90
15355;DHT22;7777;52.254;9.618;2022-09-09T03:28:20;15.40;99.90
15355;DHT22;7777;52.254;9.618;2022-09-09T03:30:46;15.40;99.90
15355;DHT22;7777;52.254;9.618;2022-09-09T03:33:12;15.40;99.90
15355;DHT22;7777;52.254;9.618;2022-09-09T03:35:38;15.40;99.90
15355;DHT22;7777;52.254;9.618;2022-09-09T03:38:04;15.40;99.90
15355;DHT22;7777;52.254;9.618;2022-09-09T03:40:30;15.40;99.90
15355;DHT22;7777;52.254;9.618;2022-09-09T03:42:56;15.40;99.90
15355;DHT22;7777;52.254;9.618;2022-09-09T03:45:22;15.50;99.90
15355;DHT22;7777;52.254;9.618;2022-09-09T03:47:47;15.50;99.90
15355;DHT22;7777;52.254;9.618;2022-09-09T03:50:14;15.50;99.90
15355;DHT22;7777;52.254;9.618;2022-09-09T03:52:41;15.50;99.90
15355;DHT22;7777;52.254;9.618;2022-09-09T03:55:08;15.50;99.90
15355;DHT22;7777;52.254;9.618;2022-09-09T03:57:34;15.50;99.90
15355;DHT22;7777;52.254;9.618;2022-09-09T04:00:06;15.50;99.90
15355;DHT22;7777;52.254;9.618;2022-09-09T04:02:33;15.50;99.90
15355;DHT22;7777;52.254;9.618;2022-09-09T04:04:59;15.60;99.90
15355;DHT22;7777;52.254;9.618;2022-09-09T04:07:25;15.60;99.90
15355;DHT22;7777;52.254;9.618;2022-09-09T04:09:52;15.60;99.90
15355;DHT22;7777;52.254;9.618;2022-09-09T04:12:19;15.60;99.90
15355;DHT22;7777;52.254;9.618;2022-09-09T04:14:46;15.70;99.90
15355;DHT22;7777;52.254;9.618;2022-09-09T04:17:12;15.60;99.90
15355;DHT22;7777;52.254;9.618;2022-09-09T04:19:37;15.70;99.90
15355;DHT22;7777;52.254;9.618;2022-09-09T04:22:03;15.70;99.90
15355;DHT22;7777;52.254;9.618;2022-09-09T04:24:29;15.70;99.90
15355;DHT22;7777;52.254;9.618;2022-09-09T04:26:55;15.70;99.90
15355;DHT22;7777;52.254;9.618;2022-09-09T04:29:21;15.70;99.90
15355;DHT22;7777;52.254;9.618;2022-09-09T04:31:46;15.80;99.90
15355;DHT22;7777;52.254;9.618;2022-09-09T04:34:12;15.80;99.90
15355;DHT22;7777;52.254;9.618;2022-09-09T04:36:38;15.80;99.90
15355;DHT22;7777;52.254;9.618;2022-09-09T04:39:05;15.80;99.90
15355;DHT22;7777;52.254;9.618;2022-09-09T04:41:31;15.80;99.90
15355;DHT22;7777;52.254;9.618;2022-09-09T04:43:57;15.80;99.90
15355;DHT22;7777;52.254;9.618;2022-09-09T04:46:23;15.80;99.90
15355;DHT22;7777;52.254;9.618;2022-09-09T04:48:49;15.80;99.90
15355;DHT22;7777;52.254;9.618;2022-09-09T04:51:15;15.80;99.90
15355;DHT22;7777;52.254;9.618;2022-09-09T04:53:41;15.80;99.90
15355;DHT22;7777;52.254;9.618;2022-09-09T04:56:13;15.90;99.90
15355;DHT22;7777;52.254;9.618;2022-09-09T04:58:40;15.90;99.90
15355;DHT22;7777;52.254;9.618;2022-09-09T05:01:16;15.90;99.90
15355;DHT22;7777;52.254;9.618;2022-09-09T05:03:43;15.90;99.90
15355;DHT22;7777;52.254;9.618;2022-09-09T05:06:12;15.90;99.90
15355;DHT22;7777;52.254;9.618;2022-09-09T05:08:40;15.90;99.90
15355;DHT22;7777;52.254;9.618;2022-09-09T05:13:41;15.90;99.90
15355;DHT22;7777;52.254;9.618;2022-09-09T05:16:07;15.90;99.90
15355;DHT22;7777;52.254;9.618;2022-09-09T05:18:36;15.90;99.90
15355;DHT22;7777;52.254;9.618;2022-09-09T05:21:02;15.90;99.90
15355;DHT22;7777;52.254;9.618;2022-09-09T05:23:28;15.90;99.90
15355;DHT22;7777;52.254;9.618;2022-09-09T05:25:57;15.90;99.90
15355;DHT22;7777;52.254;9.618;2022-09-09T05:28:25;15.90;99.90
15355;DHT22;7777;52.254;9.618;2022-09-09T05:31:05;15.90;99.90
15355;DHT22;7777;52.254;9.618;2022-09-09T05:33:36;16.00;99.90
15355;DHT22;7777;52.254;9.618;2022-09-09T05:36:05;16.00;99.90
15355;DHT22;7777;52.254;9.618;2022-09-09T05:38:34;16.00;99.90
15355;DHT22;7777;52.254;9.618;2022-09-09T05:41:01;16.00;99.90
15355;DHT22;7777;52.254;9.618;2022-09-09T05:43:28;16.00;99.90
15355;DHT22;7777;52.254;9.618;2022-09-09T05:46:09;16.00;99.90
15355;DHT22;7777;52.254;9.618;2022-09-09T05:48:41;16.00;99.90
15355;DHT22;7777;52.254;9.618;2022-09-09T05:51:13;16.10;99.90
15355;DHT22;7777;52.254;9.618;2022-09-09T05:53:45;16.10;99.90
15355;DHT22;7777;52.254;9.618;2022-09-09T05:56:16;16.10;99.90
15355;DHT22;7777;52.254;9.618;2022-09-09T05:58:48;16.10;99.90
15355;DHT22;7777;52.254;9.618;2022-09-09T06:01:15;16.10;99.90
15355;DHT22;7777;52.254;9.618;2022-09-09T06:03:44;16.10;99.90
15355;DHT22;7777;52.254;9.618;2022-09-09T06:06:12;16.20;99.90
15355;DHT22;7777;52.254;9.618;2022-09-09T06:08:42;16.20;99.90
15355;DHT22;7777;52.254;9.618;2022-09-09T06:11:19;16.20;99.90
15355;DHT22;7777;52.254;9.618;2022-09-09T06:13:50;16.20;99.90
15355;DHT22;7777;52.254;9.618;2022-09-09T06:16:20;16.20;99.90
15355;DHT22;7777;52.254;9.618;2022-09-09T06:18:51;16.30;99.90
15355;DHT22;7777;52.254;9.618;2022-09-09T06:21:24;16.30;99.90
15355;DHT22;7777;52.254;9.618;2022-09-09T06:23:55;16.30;99.90
15355;DHT22;7777;52.254;9.618;2022-09-09T06:26:24;16.30;99.90
15355;DHT22;7777;52.254;9.618;2022-09-09T06:28:52;16.40;99.90
15355;DHT22;7777;52.254;9.618;2022-09-09T06:31:21;16.40;99.90
15355;DHT22;7777;52.254;9.618;2022-09-09T06:33:49;16.40;99.90
15355;DHT22;7777;52.254;9.618;2022-09-09T06:36:22;16.40;99.90
15355;DHT22;7777;52.254;9.618;2022-09-09T06:38:49;16.40;99.90
15355;DHT22;7777;52.254;9.618;2022-09-09T06:41:17;16.50;99.90
15355;DHT22;7777;52.254;9.618;2022-09-09T06:43:44;16.50;99.90
15355;DHT22;7777;52.254;9.618;2022-09-09T06:48:39;16.50;99.90
15355;DHT22;7777;52.254;9.618;2022-09-09T06:51:16;16.50;99.90
15355;DHT22;7777;52.254;9.618;2022-09-09T06:53:44;16.60;99.90
15355;DHT22;7777;52.254;9.618;2022-09-09T06:58:41;16.60;99.90
15355;DHT22;7777;52.254;9.618;2022-09-09T07:01:11;16.70;99.90
15355;DHT22;7777;52.254;9.618;2022-09-09T07:03:39;16.70;99.90
15355;DHT22;7777;52.254;9.618;2022-09-09T07:06:06;16.80;99.90
15355;DHT22;7777;52.254;9.618;2022-09-09T07:08:34;16.80;99.90
15355;DHT22;7777;52.254;9.618;2022-09-09T07:11:08;16.80;99.90
15355;DHT22;7777;52.254;9.618;2022-09-09T07:13:35;16.90;99.90
15355;DHT22;7777;52.254;9.618;2022-09-09T07:16:08;16.90;99.90
15355;DHT22;7777;52.254;9.618;2022-09-09T07:18:36;16.90;99.90
15355;DHT22;7777;52.254;9.618;2022-09-09T07:21:03;17.00;99.90
15355;DHT22;7777;52.254;9.618;2022-09-09T07:23:29;17.00;99.90
15355;DHT22;7777;52.254;9.618;2022-09-09T07:25:56;17.10;99.90
15355;DHT22;7777;52.254;9.618;2022-09-09T07:28:23;17.10;99.90
15355;DHT22;7777;52.254;9.618;2022-09-09T07:30:56;17.10;99.90
15355;DHT22;7777;52.254;9.618;2022-09-09T07:33:24;17.20;99.90
15355;DHT22;7777;52.254;9.618;2022-09-09T07:35:51;17.20;99.90
15355;DHT22;7777;52.254;9.618;2022-09-09T07:38:19;17.30;99.90
15355;DHT22;7777;52.254;9.618;2022-09-09T07:40:46;17.30;99.90
15355;DHT22;7777;52.254;9.618;2022-09-09T07:43:12;17.40;99.90
15355;DHT22;7777;52.254;9.618;2022-09-09T07:45:38;17.40;99.90
15355;DHT22;7777;52.254;9.618;2022-09-09T07:48:06;17.50;99.90
15355;DHT22;7777;52.254;9.618;2022-09-09T07:50:32;17.50;99.90
15355;DHT22;7777;52.254;9.618;2022-09-09T07:52:58;17.50;99.90
15355;DHT22;7777;52.254;9.618;2022-09-09T07:55:25;17.60;99.90
15355;DHT22;7777;52.254;9.618;2022-09-09T07:57:53;17.70;99.90
15355;DHT22;7777;52.254;9.618;2022-09-09T08:00:19;17.70;99.90
15355;DHT22;7777;52.254;9.618;2022-09-09T08:02:45;17.80;99.90
15355;DHT22;7777;52.254;9.618;2022-09-09T08:05:12;17.80;99.90
15355;DHT22;7777;52.254;9.618;2022-09-09T08:07:38;17.90;99.90
15355;DHT22;7777;52.254;9.618;2022-09-09T08:10:04;17.90;99.90
15355;DHT22;7777;52.254;9.618;2022-09-09T08:12:32;18.00;99.90
15355;DHT22;7777;52.254;9.618;2022-09-09T08:14:58;18.00;99.90
15355;DHT22;7777;52.254;9.618;2022-09-09T08:17:23;18.00;99.90
15355;DHT22;7777;52.254;9.618;2022-09-09T08:19:49;18.10;99.90
15355;DHT22;7777;52.254;9.618;2022-09-09T08:22:15;18.10;99.90
15355;DHT22;7777;52.254;9.618;2022-09-09T08:24:41;18.10;99.90
15355;DHT22;7777;52.254;9.618;2022-09-09T08:27:07;18.10;99.90
15355;DHT22;7777;52.254;9.618;2022-09-09T08:29:32;18.10;99.90
15355;DHT22;7777;52.254;9.618;2022-09-09T08:32:02;18.10;99.90
15355;DHT22;7777;52.254;9.618;2022-09-09T08:34:27;18.20;99.90
15355;DHT22;7777;52.254;9.618;2022-09-09T08:36:55;18.20;99.90
15355;DHT22;7777;52.254;9.618;2022-09-09T08:39:21;18.20;99.90
15355;DHT22;7777;52.254;9.618;2022-09-09T08:47:54;18.30;99.90
15355;DHT22;7777;52.254;9.618;2022-09-09T08:58:30;18.40;99.90
15355;DHT22;7777;52.254;9.618;2022-09-09T09:12:26;18.70;99.90
15355;DHT22;7777;52.254;9.618;2022-09-09T09:14:54;18.70;99.90
15355;DHT22;7777;52.254;9.618;2022-09-09T09:17:26;18.70;99.90
15355;DHT22;7777;52.254;9.618;2022-09-09T09:19:54;18.70;99.90
15355;DHT22;7777;52.254;9.618;2022-09-09T09:25:15;18.80;99.90
15355;DHT22;7777;52.254;9.618;2022-09-09T09:28:02;18.80;99.90
15355;DHT22;7777;52.254;9.618;2022-09-09T09:30:39;18.80;99.90
15355;DHT22;7777;52.254;9.618;2022-09-09T09:36:08;18.90;99.90
15355;DHT22;7777;52.254;9.618;2022-09-09T09:38:35;19.00;99.90
15355;DHT22;7777;52.254;9.618;2022-09-09T09:41:02;19.10;99.90
15355;DHT22;7777;52.254;9.618;2022-09-09T09:43:30;19.10;99.90
15355;DHT22;7777;52.254;9.618;2022-09-09T09:45:58;19.20;99.90
15355;DHT22;7777;52.254;9.618;2022-09-09T09:48:25;19.30;99.90
15355;DHT22;7777;52.254;9.618;2022-09-09T09:51:27;19.40;99.90
15355;DHT22;7777;52.254;9.618;2022-09-09T09:53:46;19.40;99.90
15355;DHT22;7777;52.254;9.618;2022-09-09T09:56:13;19.50;99.90
15355;DHT22;7777;52.254;9.618;2022-09-09T10:06:35;19.60;99.90
15355;DHT22;7777;52.254;9.618;2022-09-09T10:09:20;19.60;99.90
15355;DHT22;7777;52.254;9.618;2022-09-09T10:14:18;19.70;99.90
15355;DHT22;7777;52.254;9.618;2022-09-09T10:19:37;19.70;99.90
15355;DHT22;7777;52.254;9.618;2022-09-09T10:22:26;19.70;99.90
15355;DHT22;7777;52.254;9.618;2022-09-09T10:25:32;19.70;99.90
15355;DHT22;7777;52.254;9.618;2022-09-09T10:34:43;19.60;99.90
15355;DHT22;7777;52.254;9.618;2022-09-09T10:43:23;19.70;99.90
15355;DHT22;7777;52.254;9.618;2022-09-09T10:46:07;19.80;99.90
15355;DHT22;7777;52.254;9.618;2022-09-09T10:49:41;19.90;99.90
15355;DHT22;7777;52.254;9.618;2022-09-09T10:52:12;20.10;99.90
15355;DHT22;7777;52.254;9.618;2022-09-09T10:59:55;20.20;99.90
15355;DHT22;7777;52.254;9.618;2022-09-09T11:02:30;20.00;99.90
15355;DHT22;7777;52.254;9.618;2022-09-09T11:05:05;19.80;99.90
15355;DHT22;7777;52.254;9.618;2022-09-09T11:07:49;19.50;99.90
15355;DHT22;7777;52.254;9.618;2022-09-09T11:13:19;19.10;99.90
15355;DHT22;7777;52.254;9.618;2022-09-09T11:15:50;18.80;99.90
15355;DHT22;7777;52.254;9.618;2022-09-09T11:18:23;18.60;99.90
15355;DHT22;7777;52.254;9.618;2022-09-09T11:20:56;18.30;99.90
15355;DHT22;7777;52.254;9.618;2022-09-09T11:23:48;18.10;99.90
15355;DHT22;7777;52.254;9.618;2022-09-09T11:26:24;17.90;99.90
15355;DHT22;7777;52.254;9.618;2022-09-09T11:32:21;17.60;99.90
15355;DHT22;7777;52.254;9.618;2022-09-09T11:41:04;17.30;99.90
15355;DHT22;7777;52.254;9.618;2022-09-09T11:43:43;17.20;99.90
15355;DHT22;7777;52.254;9.618;2022-09-09T11:46:10;17.20;99.90
15355;DHT22;7777;52.254;9.618;2022-09-09T11:48:40;17.10;99.90
15355;DHT22;7777;52.254;9.618;2022-09-09T11:51:27;17.10;99.90
15355;DHT22;7777;52.254;9.618;2022-09-09T11:56:31;17.00;99.90
15355;DHT22;7777;52.254;9.618;2022-09-09T11:59:30;17.00;99.90
15355;DHT22;7777;52.254;9.618;2022-09-09T12:02:14;17.10;99.90
15355;DHT22;7777;52.254;9.618;2022-09-09T12:05:08;17.10;99.90
15355;DHT22;7777;52.254;9.618;2022-09-09T12:07:53;17.20;99.90
15355;DHT22;7777;52.254;9.618;2022-09-09T12:12:54;17.40;99.90
15355;DHT22;7777;52.254;9.618;2022-09-09T12:15:27;17.50;99.90
15355;DHT22;7777;52.254;9.618;2022-09-09T12:18:00;17.60;99.90
15355;DHT22;7777;52.254;9.618;2022-09-09T12:20:39;17.80;99.90
15355;DHT22;7777;52.254;9.618;2022-09-09T12:23:40;17.90;99.90
15355;DHT22;7777;52.254;9.618;2022-09-09T12:32:25;18.50;99.90
15355;DHT22;7777;52.254;9.618;2022-09-09T12:34:59;18.70;99.90
15355;DHT22;7777;52.254;9.618;2022-09-09T12:37:41;18.90;99.90
15355;DHT22;7777;52.254;9.618;2022-09-09T12:40:22;19.00;99.90
15355;DHT22;7777;52.254;9.618;2022-09-09T12:42:50;19.20;99.90
15355;DHT22;7777;52.254;9.618;2022-09-09T12:45:21;19.30;99.90
15355;DHT22;7777;52.254;9.618;2022-09-09T12:48:03;19.30;99.90
15355;DHT22;7777;52.254;9.618;2022-09-09T12:50:34;19.40;99.90
15355;DHT22;7777;52.254;9.618;2022-09-09T12:53:08;19.50;99.90
15355;DHT22;7777;52.254;9.618;2022-09-09T12:55:51;19.50;99.90
15355;DHT22;7777;52.254;9.618;2022-09-09T12:58:22;19.50;99.90
15355;DHT22;7777;52.254;9.618;2022-09-09T13:00:53;19.60;99.90
15355;DHT22;7777;52.254;9.618;2022-09-09T13:03:22;19.60;99.90
15355;DHT22;7777;52.254;9.618;2022-09-09T13:05:48;19.60;99.90
15355;DHT22;7777;52.254;9.618;2022-09-09T13:08:17;19.60;99.90
15355;DHT22;7777;52.254;9.618;2022-09-09T13:11:01;19.60;99.90
15355;DHT22;7777;52.254;9.618;2022-09-09T13:16:04;19.50;99.90
15355;DHT22;7777;52.254;9.618;2022-09-09T13:18:39;19.50;99.90
15355;DHT22;7777;52.254;9.618;2022-09-09T13:21:07;19.50;99.90
15355;DHT22;7777;52.254;9.618;2022-09-09T13:23:34;19.50;99.90
15355;DHT22;7777;52.254;9.618;2022-09-09T13:26:20;19.50;99.90
15355;DHT22;7777;52.254;9.618;2022-09-09T13:28:52;19.40;99.90
15355;DHT22;7777;52.254;9.618;2022-09-09T13:31:32;19.50;99.90
15355;DHT22;7777;52.254;9.618;2022-09-09T13:33:59;19.50;99.90
15355;DHT22;7777;52.254;9.618;2022-09-09T13:36:36;19.40;99.90
15355;DHT22;7777;52.254;9.618;2022-09-09T13:39:03;19.50;99.90
15355;DHT22;7777;52.254;9.618;2022-09-09T13:41:41;19.50;99.90
15355;DHT22;7777;52.254;9.618;2022-09-09T13:44:25;19.60;99.90
15355;DHT22;7777;52.254;9.618;2022-09-09T13:49:44;19.70;99.90
15355;DHT22;7777;52.254;9.618;2022-09-09T13:52:13;19.70;99.90
15355;DHT22;7777;52.254;9.618;2022-09-09T13:54:40;19.80;99.90
15355;DHT22;7777;52.254;9.618;2022-09-09T13:57:15;19.80;99.90
15355;DHT22;7777;52.254;9.618;2022-09-09T13:59:48;19.70;99.90
15355;DHT22;7777;52.254;9.618;2022-09-09T14:02:15;19.70;99.90
15355;DHT22;7777;52.254;9.618;2022-09-09T14:04:42;19.70;99.90
15355;DHT22;7777;52.254;9.618;2022-09-09T14:07:12;19.80;99.90
15355;DHT22;7777;52.254;9.618;2022-09-09T14:09:39;19.70;99.90
15355;DHT22;7777;52.254;9.618;2022-09-09T14:12:12;19.80;99.90
15355;DHT22;7777;52.254;9.618;2022-09-09T14:14:41;19.80;99.90
15355;DHT22;7777;52.254;9.618;2022-09-09T14:17:08;19.90;99.90
15355;DHT22;7777;52.254;9.618;2022-09-09T14:19:34;20.00;99.90
15355;DHT22;7777;52.254;9.618;2022-09-09T14:22:00;20.00;99.90
15355;DHT22;7777;52.254;9.618;2022-09-09T14:24:27;20.10;99.90
15355;DHT22;7777;52.254;9.618;2022-09-09T14:26:53;20.20;99.90
15355;DHT22;7777;52.254;9.618;2022-09-09T14:29:19;20.30;99.90
15355;DHT22;7777;52.254;9.618;2022-09-09T14:31:45;20.30;99.90
15355;DHT22;7777;52.254;9.618;2022-09-09T14:34:11;20.40;99.90
15355;DHT22;7777;52.254;9.618;2022-09-09T14:36:37;20.40;99.90
15355;DHT22;7777;52.254;9.618;2022-09-09T14:39:04;20.50;99.90
15355;DHT22;7777;52.254;9.618;2022-09-09T14:41:30;20.50;99.90
15355;DHT22;7777;52.254;9.618;2022-09-09T14:43:56;20.60;99.90
15355;DHT22;7777;52.254;9.618;2022-09-09T14:46:22;20.60;99.90
15355;DHT22;7777;52.254;9.618;2022-09-09T14:48:49;20.70;99.90
15355;DHT22;7777;52.254;9.618;2022-09-09T14:51:23;20.60;99.90
15355;DHT22;7777;52.254;9.618;2022-09-09T14:53:54;20.70;99.90
15355;DHT22;7777;52.254;9.618;2022-09-09T14:56:24;20.70;99.90
15355;DHT22;7777;52.254;9.618;2022-09-09T14:58:56;20.70;99.90
15355;DHT22;7777;52.254;9.618;2022-09-09T15:01:23;20.70;99.90
15355;DHT22;7777;52.254;9.618;2022-09-09T15:03:51;20.70;99.90
15355;DHT22;7777;52.254;9.618;2022-09-09T15:06:18;20.60;99.90
15355;DHT22;7777;52.254;9.618;2022-09-09T15:08:46;20.60;99.90
15355;DHT22;7777;52.254;9.618;2022-09-09T15:11:14;20.60;99.90
15355;DHT22;7777;52.254;9.618;2022-09-09T15:13:41;20.60;99.90
15355;DHT22;7777;52.254;9.618;2022-09-09T15:16:13;20.60;99.90
15355;DHT22;7777;52.254;9.618;2022-09-09T15:18:42;20.60;99.90
15355;DHT22;7777;52.254;9.618;2022-09-09T15:21:11;20.60;99.90
15355;DHT22;7777;52.254;9.618;2022-09-09T15:23:38;20.50;99.90
15355;DHT22;7777;52.254;9.618;2022-09-09T15:26:05;20.50;99.90
15355;DHT22;7777;52.254;9.618;2022-09-09T15:28:35;20.40;99.90
15355;DHT22;7777;52.254;9.618;2022-09-09T15:31:06;20.40;99.90
15355;DHT22;7777;52.254;9.618;2022-09-09T15:33:34;20.40;99.90
15355;DHT22;7777;52.254;9.618;2022-09-09T15:36:13;20.40;99.90
15355;DHT22;7777;52.254;9.618;2022-09-09T15:38:39;20.40;99.90
15355;DHT22;7777;52.254;9.618;2022-09-09T15:41:05;20.30;99.90
15355;DHT22;7777;52.254;9.618;2022-09-09T15:43:30;20.40;99.90
15355;DHT22;7777;52.254;9.618;2022-09-09T15:46:00;20.40;99.90
15355;DHT22;7777;52.254;9.618;2022-09-09T15:48:34;20.30;99.90
15355;DHT22;7777;52.254;9.618;2022-09-09T15:51:04;20.30;99.90
15355;DHT22;7777;52.254;9.618;2022-09-09T15:53:31;20.30;99.90
15355;DHT22;7777;52.254;9.618;2022-09-09T15:56:00;20.30;99.90
15355;DHT22;7777;52.254;9.618;2022-09-09T15:58:30;20.30;99.90
15355;DHT22;7777;52.254;9.618;2022-09-09T16:01:02;20.30;99.90
15355;DHT22;7777;52.254;9.618;2022-09-09T16:03:33;20.20;99.90
15355;DHT22;7777;52.254;9.618;2022-09-09T16:06:03;20.20;99.90
15355;DHT22;7777;52.254;9.618;2022-09-09T16:08:34;20.20;99.90
15355;DHT22;7777;52.254;9.618;2022-09-09T16:11:14;20.20;99.90
15355;DHT22;7777;52.254;9.618;2022-09-09T16:13:49;20.20;99.90
15355;DHT22;7777;52.254;9.618;2022-09-09T16:16:18;20.20;99.90
15355;DHT22;7777;52.254;9.618;2022-09-09T16:18:49;20.10;99.90
15355;DHT22;7777;52.254;9.618;2022-09-09T16:21:25;20.10;99.90
15355;DHT22;7777;52.254;9.618;2022-09-09T16:23:56;20.10;99.90
15355;DHT22;7777;52.254;9.618;2022-09-09T16:26:23;20.10;99.90
15355;DHT22;7777;52.254;9.618;2022-09-09T16:28:49;20.00;99.90
15355;DHT22;7777;52.254;9.618;2022-09-09T16:31:19;20.10;99.90
15355;DHT22;7777;52.254;9.618;2022-09-09T16:33:47;20.00;99.90
15355;DHT22;7777;52.254;9.618;2022-09-09T16:36:16;19.90;99.90
15355;DHT22;7777;52.254;9.618;2022-09-09T16:38:43;19.90;99.90
15355;DHT22;7777;52.254;9.618;2022-09-09T16:41:10;19.90;99.90
15355;DHT22;7777;52.254;9.618;2022-09-09T16:43:37;19.90;99.90
15355;DHT22;7777;52.254;9.618;2022-09-09T16:46:16;19.80;99.90
15355;DHT22;7777;52.254;9.618;2022-09-09T16:48:45;19.80;99.90
15355;DHT22;7777;52.254;9.618;2022-09-09T16:51:15;19.80;99.90
15355;DHT22;7777;52.254;9.618;2022-09-09T16:53:46;19.80;99.90
15355;DHT22;7777;52.254;9.618;2022-09-09T16:56:17;19.70;99.90
15355;DHT22;7777;52.254;9.618;2022-09-09T16:58:52;19.70;99.90
15355;DHT22;7777;52.254;9.618;2022-09-09T17:01:26;19.60;99.90
15355;DHT22;7777;52.254;9.618;2022-09-09T17:03:58;19.60;99.90
15355;DHT22;7777;52.254;9.618;2022-09-09T17:06:26;19.60;99.90
15355;DHT22;7777;52.254;9.618;2022-09-09T17:08:56;19.50;99.90
15355;DHT22;7777;52.254;9.618;2022-09-09T17:11:23;19.50;99.90
15355;DHT22;7777;52.254;9.618;2022-09-09T17:13:50;19.50;99.90
15355;DHT22;7777;52.254;9.618;2022-09-09T17:16:19;19.40;99.90
15355;DHT22;7777;52.254;9.618;2022-09-09T17:18:47;19.40;99.90
15355;DHT22;7777;52.254;9.618;2022-09-09T17:21:16;19.30;99.90
15355;DHT22;7777;52.254;9.618;2022-09-09T17:23:43;19.30;99.90
15355;DHT22;7777;52.254;9.618;2022-09-09T17:26:13;19.20;99.90
15355;DHT22;7777;52.254;9.618;2022-09-09T17:28:41;19.20;99.90
15355;DHT22;7777;52.254;9.618;2022-09-09T17:31:09;19.10;99.90
15355;DHT22;7777;52.254;9.618;2022-09-09T17:33:38;19.10;99.90
15355;DHT22;7777;52.254;9.618;2022-09-09T17:36:12;19.00;99.90
15355;DHT22;7777;52.254;9.618;2022-09-09T17:38:40;18.90;99.90
15355;DHT22;7777;52.254;9.618;2022-09-09T17:41:14;18.90;99.90
15355;DHT22;7777;52.254;9.618;2022-09-09T17:43:40;18.90;99.90
15355;DHT22;7777;52.254;9.618;2022-09-09T17:46:11;18.80;99.90
15355;DHT22;7777;52.254;9.618;2022-09-09T17:48:42;18.80;99.90
15355;DHT22;7777;52.254;9.618;2022-09-09T17:51:12;18.80;99.90
15355;DHT22;7777;52.254;9.618;2022-09-09T17:53:44;18.80;99.90
15355;DHT22;7777;52.254;9.618;2022-09-09T17:56:12;18.80;99.90
15355;DHT22;7777;52.254;9.618;2022-09-09T17:58:40;18.80;99.90
15355;DHT22;7777;52.254;9.618;2022-09-09T18:01:11;18.70;99.90
15355;DHT22;7777;52.254;9.618;2022-09-09T18:03:42;18.70;99.90
15355;DHT22;7777;52.254;9.618;2022-09-09T18:06:11;18.70;99.90
15355;DHT22;7777;52.254;9.618;2022-09-09T18:08:41;18.60;99.90
15355;DHT22;7777;52.254;9.618;2022-09-09T18:11:09;18.50;99.90
15355;DHT22;7777;52.254;9.618;2022-09-09T18:13:35;18.50;99.90
15355;DHT22;7777;52.254;9.618;2022-09-09T18:16:01;18.50;99.90
15355;DHT22;7777;52.254;9.618;2022-09-09T18:18:31;18.50;99.90
15355;DHT22;7777;52.254;9.618;2022-09-09T18:20:58;18.40;99.90
15355;DHT22;7777;52.254;9.618;2022-09-09T18:23:26;18.40;99.90
15355;DHT22;7777;52.254;9.618;2022-09-09T18:25:55;18.40;99.90
15355;DHT22;7777;52.254;9.618;2022-09-09T18:28:24;18.40;99.90
15355;DHT22;7777;52.254;9.618;2022-09-09T18:30:51;18.30;99.90
15355;DHT22;7777;52.254;9.618;2022-09-09T18:33:17;18.30;99.90
15355;DHT22;7777;52.254;9.618;2022-09-09T18:35:43;18.20;99.90
15355;DHT22;7777;52.254;9.618;2022-09-09T18:38:11;18.10;99.90
15355;DHT22;7777;52.254;9.618;2022-09-09T18:40:37;18.00;99.90
15355;DHT22;7777;52.254;9.618;2022-09-09T18:43:03;18.00;99.90